createdAt,value
2023-04-25T00:01:14.289Z,52049.69
2023-04-25T00:06:20.075Z,52063.69
2023-04-25T00:11:24.630Z,52033.69
2023-04-25T00:16:30.252Z,52085.69
2023-04-25T00:21:36.653Z,52077.69
2023-04-25T00:26:41.018Z,52055.69
2023-04-25T00:31:45.605Z,52085.69
2023-04-25T00:36:51.932Z,52113.69
2023-04-25T00:41:57.059Z,52095.69
2023-04-25T00:47:03.240Z,52099.69
2023-04-25T00:52:09.502Z,52105.69
2023-04-25T00:57:14.521Z,52101.69
2023-04-25T01:02:19.578Z,52081.69
2023-04-25T01:07:25.208Z,52067.69
2023-04-25T01:12:29.873Z,52007.69
2023-04-25T01:17:36.326Z,52037.69
2023-04-25T01:22:42.172Z,52047.69
2023-04-25T01:27:47.061Z,52039.69
2023-04-25T01:32:52.314Z,52037.69
2023-04-25T01:37:57.889Z,52003.69
2023-04-25T01:43:02.343Z,51971.69
2023-04-25T01:48:07.951Z,51989.69
2023-04-25T01:53:16.011Z,51933.69
2023-04-25T01:58:22.460Z,51887.72
2023-04-25T02:03:49.411Z,51837.72
2023-04-25T02:09:13.092Z,51795.72
2023-04-25T02:14:22.938Z,51787.72
2023-04-25T02:19:46.158Z,51829.72
2023-04-25T02:24:52.307Z,51805.72
2023-04-25T02:29:58.941Z,51825.72
2023-04-25T02:35:05.052Z,51759.72
2023-04-25T02:40:12.242Z,51775.72
2023-04-25T02:45:16.933Z,51785.72
2023-04-25T02:50:22.047Z,51809.72
2023-04-25T02:55:28.582Z,51725.72
2023-04-25T03:00:34.448Z,51731.72
2023-04-25T03:05:39.002Z,51673.72
2023-04-25T03:10:45.488Z,51669.72
2023-04-25T03:15:51.445Z,51647.72
2023-04-25T03:20:56.966Z,51667.72
2023-04-25T03:26:03.030Z,51631.72
2023-04-25T03:31:07.366Z,51615.72
2023-04-25T03:36:11.983Z,51575.72
2023-04-25T03:41:18.460Z,51577.72
2023-04-25T03:46:32.983Z,51561.72
2023-04-25T03:51:38.031Z,51507.75
2023-04-25T03:56:43.892Z,51509.75
2023-04-25T04:01:56.741Z,51435.75
2023-04-25T04:07:01.404Z,51427.75
2023-04-25T04:12:11.103Z,51423.75
2023-04-25T04:17:18.216Z,51385.75
2023-04-25T04:22:22.861Z,51353.75
2023-04-25T04:27:30.822Z,51373.75
2023-04-25T04:32:52.956Z,51369.75
2023-04-25T04:37:58.806Z,51325.78
2023-04-25T04:43:09.997Z,51311.78
2023-04-25T04:48:35.437Z,51329.78
2023-04-25T04:54:03.502Z,51239.78
2023-04-25T04:59:22.597Z,51317.78
2023-04-25T05:04:46.312Z,51289.78
2023-04-25T05:10:10.091Z,51317.78
2023-04-25T05:15:15.919Z,51247.78
2023-04-25T05:20:36.597Z,51237.78
2023-04-25T05:26:15.107Z,51229.78
2023-04-25T05:31:32.256Z,51191.78
2023-04-25T05:36:45.057Z,51185.81
2023-04-25T05:41:49.610Z,51187.81
2023-04-25T05:47:18.348Z,51213.78
2023-04-25T05:52:36.767Z,51185.81
2023-04-25T05:57:46.367Z,51225.78
2023-04-25T06:02:53.657Z,51129.81
2023-04-25T06:07:58.280Z,51079.81
2023-04-25T06:13:02.686Z,51069.81
2023-04-25T06:18:09.700Z,51101.81
2023-04-25T06:23:14.276Z,51079.81
2023-04-25T06:28:26.532Z,51065.81
2023-04-25T06:33:32.774Z,51069.81
2023-04-25T06:38:37.811Z,51057.84
2023-04-25T06:43:43.440Z,51101.81
2023-04-25T06:55:29.192Z,51071.81
2023-04-25T07:01:20.244Z,51049.84
2023-04-25T07:06:24.759Z,51051.84
2023-04-25T07:17:15.412Z,51065.81
2023-04-25T07:22:20.110Z,51061.81
2023-04-25T07:27:24.729Z,51003.84
2023-04-25T07:33:11.864Z,50973.84
2023-04-25T07:38:17.676Z,50969.84
2023-04-25T07:43:22.180Z,50953.84
2023-04-25T07:49:02.312Z,50901.88
2023-04-25T08:01:42.092Z,50915.88
2023-04-25T08:06:49.550Z,50947.84
2023-04-25T08:24:40.734Z,51233.78
2023-04-25T08:29:46.846Z,51279.78
2023-04-25T08:34:58.526Z,51323.78
2023-04-25T08:47:36.850Z,50921.88
2023-04-25T08:52:47.070Z,50907.88
2023-04-25T08:57:52.928Z,50925.88
2023-04-25T09:08:53.044Z,50689.94
2023-04-25T09:14:13.054Z,50629.97
2023-04-25T09:25:26.367Z,50831.91
2023-04-25T09:30:32.637Z,50819.91
2023-04-25T09:36:07.216Z,50797.91
2023-04-25T09:42:06.748Z,50835.91
2023-04-25T09:54:47.337Z,50617.97
2023-04-25T09:59:57.768Z,50753.91
2023-04-25T10:05:14.491Z,50717.94
2023-04-25T10:17:52.043Z,50763.91
2023-04-25T10:23:00.515Z,50821.91
2023-04-25T10:33:37.869Z,50617.97
2023-04-25T10:38:42.681Z,50546.00
2023-04-25T10:49:47.856Z,50647.97
2023-04-25T10:54:55.866Z,50599.97
2023-04-25T11:06:40.240Z,50552.00
2023-04-25T11:17:28.920Z,50464.03
2023-04-25T11:22:36.042Z,50522.00
2023-04-25T11:28:13.012Z,50560.00
2023-04-25T11:39:07.176Z,50498.00
2023-04-25T11:44:11.661Z,50462.03
2023-04-25T11:49:19.665Z,50420.03
2023-04-25T12:00:19.059Z,50364.06
2023-04-25T12:05:41.451Z,50422.03
2023-04-25T12:10:49.343Z,50424.03
2023-04-25T12:15:57.075Z,50370.06
2023-04-25T12:27:48.023Z,50436.03
2023-04-25T12:32:53.954Z,50458.03
2023-04-25T12:37:58.344Z,50484.03
2023-04-25T12:44:16.093Z,50498.00
2023-04-25T12:54:45.662Z,50478.03
2023-04-25T13:06:05.113Z,50585.97
2023-04-25T13:11:11.408Z,50530.00
2023-04-25T13:24:35.946Z,50552.00
2023-04-25T13:29:41.911Z,50536.00
2023-04-25T13:41:30.995Z,50436.03
2023-04-25T13:46:45.557Z,50446.03
2023-04-25T13:51:51.454Z,50390.06
2023-04-25T13:57:00.152Z,50362.06
2023-04-25T14:02:04.981Z,50402.06
2023-04-25T14:07:09.575Z,50454.03
2023-04-25T14:12:15.375Z,50454.03
2023-04-25T14:17:19.909Z,50621.97
2023-04-25T14:22:24.303Z,50779.91
2023-04-25T14:27:30.019Z,50867.88
2023-04-25T14:32:34.523Z,50745.91
2023-04-25T14:37:38.758Z,50673.94
2023-04-25T14:42:45.080Z,50623.97
2023-04-25T14:47:49.869Z,50627.97
2023-04-25T14:52:54.108Z,50837.91
2023-04-25T14:57:59.614Z,50855.88
2023-04-25T15:03:03.914Z,50851.88
2023-04-25T15:08:08.539Z,50801.91
2023-04-25T15:13:14.437Z,50573.97
2023-04-25T15:18:19.314Z,50464.03
2023-04-25T15:23:24.063Z,50338.06
2023-04-25T15:28:29.937Z,50370.06
2023-04-25T15:33:34.585Z,50364.06
2023-04-25T15:38:39.168Z,50508.00
2023-04-25T15:43:45.005Z,50512.00
2023-04-25T15:48:49.416Z,50444.03
2023-04-25T15:53:57.691Z,50434.03
2023-04-25T15:59:03.304Z,50488.00
2023-04-25T16:04:08.623Z,50524.00
2023-04-25T16:09:13.605Z,50406.06
2023-04-25T16:14:19.402Z,50410.03
2023-04-25T16:19:27.368Z,50356.06
2023-04-25T16:24:31.826Z,50350.06
2023-04-25T16:29:37.791Z,50316.09
2023-04-25T16:34:45.813Z,50366.06
2023-04-25T16:39:50.485Z,50276.09
2023-04-25T16:44:56.474Z,50262.13
2023-04-25T16:50:01.768Z,50274.09
2023-04-25T16:55:06.676Z,50262.13
2023-04-25T17:00:13.981Z,50208.13
2023-04-25T17:05:18.680Z,50170.16
2023-04-25T17:10:23.286Z,50126.19
2023-04-25T17:15:29.213Z,50086.19
2023-04-25T17:20:33.821Z,50114.19
2023-04-25T17:25:38.538Z,50080.19
2023-04-25T17:30:44.719Z,50072.19
2023-04-25T17:35:49.194Z,50088.19
2023-04-25T17:40:53.623Z,50052.22
2023-04-25T17:45:59.128Z,50034.22
2023-04-25T17:51:04.435Z,50042.22
2023-04-25T17:56:25.377Z,50014.22
2023-04-25T18:01:32.115Z,49994.25
2023-04-25T18:06:36.844Z,50006.25
2023-04-25T18:11:41.641Z,49944.28
2023-04-25T18:16:48.727Z,49984.25
2023-04-25T18:21:54.705Z,49952.25
2023-04-25T18:27:01.339Z,49930.28
2023-04-25T18:32:07.862Z,49912.28
2023-04-25T18:37:14.561Z,49950.25
2023-04-25T18:42:18.820Z,49978.25
2023-04-25T18:47:24.875Z,49974.25
2023-04-25T18:52:29.221Z,50016.22
2023-04-25T18:57:33.737Z,50000.25
2023-04-25T19:02:39.538Z,49960.25
2023-04-25T19:07:45.269Z,49968.25
2023-04-25T19:12:49.911Z,49956.25
2023-04-25T19:17:56.409Z,49966.25
2023-04-25T19:23:01.154Z,50008.25
2023-04-25T19:28:05.365Z,50014.22
2023-04-25T19:33:11.249Z,50000.25
2023-04-25T19:38:16.763Z,50020.22
2023-04-25T19:43:21.155Z,50016.22
2023-04-25T19:48:26.709Z,49982.25
2023-04-25T19:53:31.096Z,50002.25
2023-04-25T19:58:35.520Z,49966.25
2023-04-25T20:03:41.556Z,49986.25
2023-04-25T20:08:47.416Z,49962.25
2023-04-25T20:13:51.962Z,49938.28
2023-04-25T20:18:58.336Z,49912.28
2023-04-25T20:24:03.115Z,49986.25
2023-04-25T20:29:07.417Z,49966.25
2023-04-25T20:34:13.270Z,49958.25
2023-04-25T20:39:17.812Z,49948.28
2023-04-25T20:44:23.820Z,49942.28
2023-04-25T20:49:29.332Z,49926.28
2023-04-25T20:54:34.473Z,49988.25
2023-04-25T20:59:38.582Z,50024.22
2023-04-25T21:04:44.871Z,50034.22
2023-04-25T21:09:49.233Z,49994.25
2023-04-25T21:14:53.380Z,50016.22
2023-04-25T21:19:59.218Z,49994.25
2023-04-25T21:25:06.804Z,50020.22
2023-04-25T21:30:11.859Z,50000.25
2023-04-25T21:35:17.487Z,50038.22
2023-04-25T21:40:22.246Z,49978.25
2023-04-25T21:45:26.796Z,50010.22
2023-04-25T21:50:32.660Z,50006.25
2023-04-25T21:55:36.866Z,50002.25
2023-04-25T22:00:40.991Z,49990.25
2023-04-25T22:05:47.236Z,49982.25
2023-04-25T22:10:55.354Z,49982.25
2023-04-25T22:16:00.246Z,50014.22
2023-04-25T22:21:05.975Z,50018.22
2023-04-25T22:26:10.289Z,50018.22
2023-04-25T22:31:15.465Z,49998.25
2023-04-25T22:36:24.171Z,49958.25
2023-04-25T22:41:28.313Z,50012.22
2023-04-25T22:46:32.803Z,50004.25
2023-04-25T22:51:38.981Z,50018.22
2023-04-25T22:56:43.415Z,50022.22
2023-04-25T23:01:48.532Z,50000.25
2023-04-25T23:06:54.325Z,50028.22
2023-04-25T23:12:00.052Z,50024.22
2023-04-25T23:17:04.655Z,50002.25
2023-04-25T23:22:10.334Z,50018.22
2023-04-25T23:27:14.962Z,50018.22
2023-04-25T23:32:19.396Z,50026.22
2023-04-25T23:37:26.511Z,50060.22
2023-04-25T23:42:32.160Z,50038.22
2023-04-25T23:47:36.762Z,50062.22
2023-04-25T23:52:43.471Z,50034.22
2023-04-25T23:57:48.810Z,49954.25
